Terminal Aerodrome Forecast
Issued by NWS

Home | Current Version | Previous Version | Text Only | Print | Product List | Glossary On
Versions: 1 2 3 4 5 6 7 8 9 10 11 12 13 14 15 16 17 18 19
000
FTUS43 KABR 030500
TAFPIR
TAF
KPIR 030538Z 0306/0406 34015KT 3SM -SN OVC025
     FM030800 34020G30KT 1/2SM SN BLSN OVC010
     FM031000 34030G40KT 1/4SM SN BLSN OVC007
     FM031600 33025G35KT 1SM BLSN OVC015
     FM032100 32017KT P6SM BKN040=

USA.gov is the U.S. government's official web portal to all federal, state and local government web resources and services.